aviador You're here:

FMMI Decoded Metar

ANTANANARIVO in MADAGASCAR
Report Time2018-01-19 05:00:00
UTC Time2018-01-19 05:13:27
Flight Rules vfr VFR
WindVRB at 02 kt
Visibility9999 m
Phenomena:N/A
Clouds:Scattered 017 Hf
Expected CloudBase > 1,200 ft AGL from Temp-Dew spread
CeilingNone
Temp19°C (ISA +12)
Dew Point16°C (83% RH)
QNH1015 hPa
Density Alt5,807 ft
Elevation4,186 ft
Report Wrong Elevation
Raw Report
FMMI 190500Z VRB02KT 9999 SCT017 19/16 Q1015 NOSIG=

Extra information for FMMI:More info

Metar Taf Metar & Taf Last 4 Metars F.Rules Stats Wind Profile Meteogram Temp Stats Airport Information Weather charts Add Link Nearby VenuesMetar ALERT Operation Metar Decoded Social comments